Terminal Aerodrome Forecast
Issued by NWS Sterling, VA

Home | Current Version | Previous Version | Text Only | Print | Product List | Glossary On
Versions: 1 2 3 4 5 6 7 8 9 10 11 12 13 14 15 16 17 18
000
FTUS41 KLWX 282340
TAFMRB
TAF
KMRB 282340Z 2900/2924 32004KT P6SM BKN100
     FM290200 25004KT P6SM BKN100
     FM290400 VRB03KT P6SM SCT100
     FM290600 00000KT 3SM BR FEW250
     FM291200 06006KT 6SM BR BKN100
     FM291500 13005KT P6SM BKN060=

USA.gov is the U.S. government's official web portal to all federal, state and local government web resources and services.